Aérodrome :
LOGIN :

S'inscrire | Disclaimer

   EN    FR    IT 

 










Légende :    VFR   VFR Marginal   IFR   IFR Intensif   IFR Très Intensif
Visi : 
Plafond : 
>= 8 km
>= 3000ft
5 à 8 km
1000 à 3000 ft
1500m à 5 km
500 à 1000 ft
800 à 1500m
200 à 500 ft
< 800m
< 200 ft
Symboles :   Orages  Brouillard  Fortes neiges  Fortes précipitations  Vent > 20 kt
SIGMETs :   Divers  Orages  Givrage  Turbulence  Onde Orograph.  Cendres Volcan.







- Altitude de l'aérodrome : 3 ft
- Code IATA : DHR


EHKD - Den Helder De Kooy

DERNIER METAR :
  • 181255Z AUTO 10014KT 070V140 9999 OVC260 19/06 Q1026 BLU 09010KT CAVOK

METARs EXPIRÉS :
  • 181225Z AUTO 09013KT 070V130 9999 OVC250 20/06 Q1026 BLU 09010KT CAVOK
  • 181155Z AUTO 08011KT 050V110 9999 BKN230 BKN290 17/10 Q1027 BLU 09010KT CAVOK
  • 181125Z AUTO 08013KT 050V110 9999 OVC210 17/10 Q1027 BLU 09010KT CAVOK
  • 181055Z AUTO 07010KT 040V100 9999 OVC210 15/10 Q1027 BLU 09010KT CAVOK
  • 181025Z AUTO 07010KT 9999 OVC200 15/09 Q1027 BLU 09010KT CAVOK

TAF TAF EHKD
Valide du 18 à 09h jusqu'au 18 à 21h UTC


180839Z 1809/1821 08009KT CAVOK
TEMPO 1809/1817 08014G24KT
Pas de NOTAMs connus pour ce terrain.



MET'MAP, la Météo Aéronautique d'un coup d'oeil ! - Copyright ORBIFLY Décembre 2007 - Disclaimer

ORBIFLY MET'MAP TEAM :

Programmation & Développement : Alexandra Zaïnal
Conception & Développement : Baudouin d'Aumeries
Co-Programmation & Développement : Marc-Olivier Méhu
Soutien technique & logistique : Manuel Goepfert

Contact : metmap@orbifly.com




SOURCES & CREDITS :

   NOAA